METAR Data
IDs: Format: Raw Decoded Include TAF

Data at: 1635 UTC 24 Aug 2019

PANT 241553Z AUTO 21007KT 10SM BKN017 OVC026 14/13 A2972 RMK SLP065 T01390133 TSNO VIA AUTODIAL
PANT 241502Z AUTO 19005KT 10SM SCT004 OVC020 13/13 A2970 RMK T01330133 TSNO VIA AUTODIAL
PANT 241453Z AUTO 20004KT 10SM BKN003 OVC022 13/13 A2970 RMK SLP058 T01330133 53014 TSNO VIA AUTODIAL
PANT 241353Z AUTO 18006KT 10SM BKN003 OVC046 13/13 A2968 RMK SLP050 T01330133 TSNO VIA AUTODIAL
PANT 241253Z AUTO 19006KT 10SM OVC003 13/13 A2967 RMK SLP047 T01330133 TSNO VIA AUTODIAL
PANT 241153Z AUTO 19007KT 10SM OVC004 13/13 A2966 RMK SLP044 60034 70107 T01330133 10133 20128 53009 TSNO VIA AUTODIAL
PANT 241053Z AUTO 18008KT 150V220 10SM OVC004 13/13 A2964 RMK RAE25 SLP039 P0001 T01330133 TSNO VIA AUTODIAL
PANT 240853Z AUTO 15013G20KT 4SM -RA BR OVC004 13/13 A2963 RMK SLP033 P0005 60021 T01280128 401390117 50002 TSNO VIA AUTODIAL
PANT 240851Z AUTO 15011G20KT 4SM -RA BR OVC004 13/13 A2963 RMK P0005 TSNO VIA AUTODIAL
PANT 240753Z AUTO 15012G24KT 4SM -RA BR OVC005 13/13 A2963 RMK SLP033 P0011 T01280128 TSNO VIA AUTODIAL
PANT 240653Z AUTO 14011G19KT 5SM -RA BR BKN006 OVC021 13/13 A2962 RMK SLP032 P0005 T01330133 TSNO VIA AUTODIAL
PANT 240642Z AUTO 14011G21KT 4SM RA BR BKN007 OVC021 13/13 A2962 RMK P0005 T01330133 TSNO VIA AUTODIAL
PANT 240629Z AUTO 15010G18KT 4SM RA BR SCT008 BKN021 OVC026 13/13 A2962 RMK P0002 T01330133 TSNO VIA AUTODIAL
PANT 240553Z AUTO 15009KT 9SM -RA BKN025 OVC035 13/13 A2962 RMK SLP031 P0003 60006 T01330133 10139 20133 53004 TSNO VIA AUTODIAL
PANT 240551Z AUTO 15009KT 9SM -RA FEW020 BKN025 OVC042 13/13 A2962 RMK P0003 TSNO VIA AUTODIAL
PANT 240501Z AUTO 14008KT 10SM -RA SCT006 SCT045 OVC075 13/13 A2961 RMK P0000 T01330133 TSNO VIA AUTODIAL
PANT 240453Z AUTO 15008KT 10SM -RA BKN006 BKN045 OVC075 13/13 A2961 RMK RAB49 SLP028 P0000 T01330133 TSNO VIA AUTODIAL
PANT 240353Z AUTO 15009KT 10SM BKN005 OVC022 13/13 A2961 RMK RAB03E16 SLP028 P0000 T01330133 TSNO VIA AUTODIAL
PANT 240351Z AUTO 15008KT 10SM BKN005 OVC022 13/13 A2961 RMK RAB03E16 P0000 TSNO VIA AUTODIAL
PANT 240318Z AUTO 14008KT 10SM FEW005 BKN028 OVC033 13/13 A2961 RMK RAB03E16 P0000 T01330133 TSNO VIA AUTODIAL
PANT 240253Z AUTO 15007KT 120V180 10SM FEW004 BKN035 OVC060 14/13 A2961 RMK RAE01 SLP027 P0000 60003 T01390133 50001 TSNO VIA AUTODIAL
PANT 240243Z AUTO 15006G15KT 10SM FEW004 BKN037 OVC060 14/14 A2961 RMK RAE01 P0000 T01390139 TSNO VIA AUTODIAL
PANT 240202Z AUTO 18005KT 10SM SCT005 BKN021 OVC075 13/13 A2961 RMK RAE01 P0000 T01330133 TSNO VIA AUTODIAL
PANT 240153Z AUTO 17006KT 10SM -RA FEW005 BKN039 OVC075 14/14 A2961 RMK SLP027 P0001 T01390139 TSNO VIA AUTODIAL
PANT 240150Z AUTO VRB05KT 10SM -RA FEW007 BKN039 OVC075 14/14 A2961 RMK P0001 TSNO VIA AUTODIAL
PANT 240136Z AUTO VRB06KT 9SM -RA SCT007 BKN020 OVC042 14/14 A2961 RMK P0001 T01390139 TSNO VIA AUTODIAL
PANT 240119Z AUTO 17006KT 7SM -RA SCT005 BKN011 OVC043 14/14 A2961 RMK P0001 T01390139 TSNO VIA AUTODIAL
PANT 240053Z AUTO 17007KT 4SM -RA BR BKN004 OVC043 13/13 A2960 RMK RAB20 SLP025 P0002 T01330133 TSNO VIA AUTODIAL
PANT 240042Z AUTO 18006G15KT 4SM -RA BR OVC004 13/13 A2960 RMK RAB20 P0001 T01330133 TSNO VIA AUTODIAL
PANT 232353Z AUTO 16009G18KT 10SM OVC006 14/14 A2960 RMK RAE06 CIG 004V008 SLP024 P0001 60040 T01390139 10139 20128 51003 TSNO VIA AUTODIAL
PANT 232351Z AUTO 17011G18KT 10SM OVC006 14/14 A2960 RMK RAE06 CIG 004V008 P0001 TSNO VIA AUTODIAL
PANT 232337Z AUTO 17011G19KT 9SM OVC004 14/14 A2960 RMK RAE06 P0001 T01390139 TSNO VIA AUTODIAL
PANT 232311Z AUTO 16011G22KT 9SM OVC005 14/14 A2960 RMK RAE06 P0001 T01390139 TSNO VIA AUTODIAL
PANT 232253Z AUTO 16013G22KT 5SM -RA BR OVC004 13/13 A2959 RMK SLP021 P0027 T01330133 TSNO VIA AUTODIAL
PANT 232245Z AUTO 16012G21KT 3SM -RA BR OVC004 13/13 A2959 RMK P0027 T01330133 TSNO VIA AUTODIAL
PANT 232225Z AUTO 16013G23KT 1SM RA BR OVC004 13/13 A2960 RMK P0014 T01330133 TSNO VIA AUTODIAL
PANT 232213Z AUTO 16012G21KT 1 1/2SM +RA BR OVC007 13/13 A2960 RMK CIG 004V009 P0005 T01330133 TSNO VIA AUTODIAL
PANT 232206Z AUTO 15010G21KT 2SM RA BR OVC007 13/13 A2959 RMK P0002 T01330133 TSNO VIA AUTODIAL
PANT 232153Z AUTO 15013G24KT 4SM -RA BR OVC007 14/13 A2959 RMK PK WND 16029/2139 SLP020 P0004 T01390133 TSNO VIA AUTODIAL
PANT 232105Z AUTO 15016G25KT 6SM -RA BR OVC006 14/14 A2958 RMK P0000 T01390139 TSNO VIA AUTODIAL
PANT 232053Z AUTO 15015G25KT 2SM RA BR OVC006 14/14 A2958 RMK PK WND 15026/2043 SLP018 P0003 60008 T01390139 58003 TSNO VIA AUTODIAL
PANT 232051Z AUTO 15016G26KT 2 1/2SM RA BR OVC006 14/14 A2959 RMK PK WND 15026/2043 P0002 TSNO VIA AUTODIAL
PANT 232007Z AUTO 15015G24KT 6SM -RA BR OVC005 14/13 A2959 RMK CIG 004V008 P0001 T01390133 TSNO VIA AUTODIAL
PANT 231953Z AUTO 15013G30KT 2 1/2SM -RA BR OVC006 13/13 A2959 RMK PK WND 14030/1951 SLP021 P0004 T01330133 TSNO VIA AUTODIAL
PANT 231951Z AUTO 15018G30KT 2 1/2SM -RA BR OVC006 13/13 A2959 RMK PK WND 14030/1951 P0004 TSNO VIA AUTODIAL
PANT 231944Z AUTO 15013G23KT 3SM -RA BR OVC006 13/13 A2959 RMK PK WND 16026/1902 P0003 T01330133 TSNO VIA AUTODIAL
PANT 231934Z AUTO 15011G24KT 2 1/2SM RA BR OVC006 13/13 A2959 RMK PK WND 16026/1902 P0002 T01330133 TSNO VIA AUTODIAL
PANT 231853Z AUTO 16014G22KT 10SM -RA OVC006 13/13 A2960 RMK PK WND 15028/1824 SLP023 P0001 T01330133 TSNO VIA AUTODIAL
PANT 231753Z AUTO 15014G28KT 3SM -RA BR OVC005 13/13 A2959 RMK PK WND 16028/1748 SLP022 P0009 60027 T01280128 10128 20122 56007 TSNO VIA AUTODIAL
PANT 231741Z AUTO 15013G21KT 2 1/2SM RA BR OVC005 13/13 A2959 RMK P0008 T01280128 TSNO VIA AUTODIAL
PANT 231714Z AUTO 15012G23KT 3SM RA BR OVC006 13/13 A2959 RMK P0005 T01280128 TSNO VIA AUTODIAL
PANT 231707Z AUTO 15012G22KT 2 1/2SM RA BR OVC006 13/13 A2959 RMK P0004 T01280128 TSNO VIA AUTODIAL
PANT 231653Z AUTO 15010G28KT 3SM RA BR OVC006 13/13 A2959 RMK PK WND 14028/1647 SLP022 P0008 T01280128 TSNO VIA AUTODIAL
PANT 231253Z AUTO 15013G23KT 5SM -RA BR OVC006 13/12 A2962 RMK PK WND 15027/1204 RAB45 SLP029 P0000 T01280122 TSNO VIA AUTODIAL
PANT 231153Z AUTO 16016G25KT 10SM OVC006 12/12 A2962 RMK PK WND 15027/1101 RAE46 SLP031 P0002 60042 70110 T01220122 10122 20111 58017 TSNO VIA AUTODIAL
PANT 230953Z AUTO 14016G28KT 4SM -RA BR OVC007 12/12 A2966 RMK PK WND 15028/0950 SLP045 P0006 T01220122 TSNO VIA AUTODIAL
PANT 230853Z AUTO 14017G26KT 7SM -RA OVC008 12/12 A2967 RMK PK WND 13030/0806 SLP048 P0008 60031 T01170117 401330106 58007 TSNO VIA AUTODIAL
PANT 230753Z AUTO 14019G29KT 3SM RA BR OVC009 12/11 A2969 RMK PK WND 14030/0658 SLP053 P0008 T01170111 TSNO VIA AUTODIAL
PANT 230701Z AUTO 14017G31KT 3SM -RA BR BKN007 OVC012 12/11 A2969 RMK PK WND 14030/0658 P0001 T01170111 TSNO VIA AUTODIAL
PANT 230653Z AUTO 13021G31KT 2 1/2SM RA BR BKN009 OVC012 11/11 A2969 RMK PK WND 14031/0653 VIS 2V3 SLP055 P0015 T01110111 TSNO VIA AUTODIAL
PANT 230650Z AUTO 12012G24KT 2 1/2SM RA BR BKN009 OVC012 11/11 A2969 RMK PK WND 15029/0630 P0014 TSNO VIA AUTODIAL
PANT 230623Z AUTO 12016G26KT 3SM -RA BR BKN007 OVC012 11/11 A2970 RMK PK WND 14026/0619 P0008 T01110111 TSNO VIA AUTODIAL
PANT 230453Z AUTO 12018G30KT 4SM RA BR BKN009 OVC014 11/11 A2973 RMK PK WND 13030/0451 SLP068 P0012 T01060106 TSNO VIA AUTODIAL
PANT 230451Z AUTO 12016G30KT 4SM RA BR BKN009 OVC014 11/11 A2973 RMK PK WND 13030/0451 P0012 TSNO VIA AUTODIAL
PANT 230443Z AUTO 12014G27KT 3SM RA BR SCT007 BKN011 OVC015 11/11 A2973 RMK PK WND 12028/0422 P0010 T01060106 TSNO VIA AUTODIAL